sensor_id;sensor_type;location;lat;lon;timestamp;P1;durP1;ratioP1;P2;durP2;ratioP2
39128;SDS011;24864;49.940;19.770;2023-01-01T00:01:56;4.57;;;2.65;;
39128;SDS011;24864;49.940;19.770;2023-01-01T00:04:24;3.97;;;2.88;;
39128;SDS011;24864;49.940;19.770;2023-01-01T00:06:53;4.65;;;2.50;;
39128;SDS011;24864;49.940;19.770;2023-01-01T00:09:22;5.30;;;2.88;;
39128;SDS011;24864;49.940;19.770;2023-01-01T00:12:07;3.75;;;2.83;;
39128;SDS011;24864;49.940;19.770;2023-01-01T00:14:35;3.50;;;3.10;;
39128;SDS011;24864;49.940;19.770;2023-01-01T00:17:04;3.30;;;2.30;;
39128;SDS011;24864;49.940;19.770;2023-01-01T00:19:32;5.38;;;2.78;;
39128;SDS011;24864;49.940;19.770;2023-01-01T00:22:01;6.70;;;2.53;;
39128;SDS011;24864;49.940;19.770;2023-01-01T00:24:49;2.78;;;2.10;;
39128;SDS011;24864;49.940;19.770;2023-01-01T00:27:18;3.33;;;2.42;;
39128;SDS011;24864;49.940;19.770;2023-01-01T00:29:46;3.83;;;2.58;;
39128;SDS011;24864;49.940;19.770;2023-01-01T00:32:13;4.55;;;2.63;;
39128;SDS011;24864;49.940;19.770;2023-01-01T00:34:48;4.25;;;2.70;;
39128;SDS011;24864;49.940;19.770;2023-01-01T00:37:17;5.35;;;2.60;;
39128;SDS011;24864;49.940;19.770;2023-01-01T00:39:45;3.10;;;2.58;;
39128;SDS011;24864;49.940;19.770;2023-01-01T00:42:13;3.70;;;2.90;;
39128;SDS011;24864;49.940;19.770;2023-01-01T00:44:41;3.45;;;2.88;;
39128;SDS011;24864;49.940;19.770;2023-01-01T00:47:09;3.25;;;2.20;;
39128;SDS011;24864;49.940;19.770;2023-01-01T00:49:37;3.92;;;2.80;;
39128;SDS011;24864;49.940;19.770;2023-01-01T00:52:05;5.00;;;2.95;;
39128;SDS011;24864;49.940;19.770;2023-01-01T00:54:34;3.33;;;2.53;;
39128;SDS011;24864;49.940;19.770;2023-01-01T00:57:03;5.38;;;3.13;;
39128;SDS011;24864;49.940;19.770;2023-01-01T00:59:31;4.32;;;2.63;;
39128;SDS011;24864;49.940;19.770;2023-01-01T01:01:58;4.63;;;3.35;;
39128;SDS011;24864;49.940;19.770;2023-01-01T01:04:27;5.43;;;3.33;;
39128;SDS011;24864;49.940;19.770;2023-01-01T01:06:55;4.18;;;3.15;;
39128;SDS011;24864;49.940;19.770;2023-01-01T01:09:23;4.47;;;3.50;;
39128;SDS011;24864;49.940;19.770;2023-01-01T01:11:52;3.50;;;2.45;;
39128;SDS011;24864;49.940;19.770;2023-01-01T01:14:40;4.60;;;3.17;;
39128;SDS011;24864;49.940;19.770;2023-01-01T01:17:08;3.72;;;2.72;;
39128;SDS011;24864;49.940;19.770;2023-01-01T01:19:36;4.60;;;2.85;;
39128;SDS011;24864;49.940;19.770;2023-01-01T01:22:05;4.95;;;2.58;;
39128;SDS011;24864;49.940;19.770;2023-01-01T01:24:33;4.85;;;3.38;;
39128;SDS011;24864;49.940;19.770;2023-01-01T01:27:02;3.30;;;2.65;;
39128;SDS011;24864;49.940;19.770;2023-01-01T01:29:30;4.60;;;3.08;;
39128;SDS011;24864;49.940;19.770;2023-01-01T01:31:58;3.58;;;2.80;;
39128;SDS011;24864;49.940;19.770;2023-01-01T01:34:26;3.97;;;2.78;;
39128;SDS011;24864;49.940;19.770;2023-01-01T01:36:54;6.80;;;2.50;;
39128;SDS011;24864;49.940;19.770;2023-01-01T01:39:22;3.97;;;2.65;;
39128;SDS011;24864;49.940;19.770;2023-01-01T01:41:50;4.07;;;2.95;;
39128;SDS011;24864;49.940;19.770;2023-01-01T01:47:17;3.33;;;2.40;;
39128;SDS011;24864;49.940;19.770;2023-01-01T01:49:50;4.00;;;2.80;;
39128;SDS011;24864;49.940;19.770;2023-01-01T01:52:21;3.88;;;3.00;;
39128;SDS011;24864;49.940;19.770;2023-01-01T01:54:50;4.65;;;2.65;;
39128;SDS011;24864;49.940;19.770;2023-01-01T01:57:18;4.18;;;2.83;;
39128;SDS011;24864;49.940;19.770;2023-01-01T01:59:48;3.30;;;2.47;;
39128;SDS011;24864;49.940;19.770;2023-01-01T02:05:17;3.38;;;2.40;;
39128;SDS011;24864;49.940;19.770;2023-01-01T02:07:46;3.65;;;2.60;;
39128;SDS011;24864;49.940;19.770;2023-01-01T02:10:15;3.20;;;2.20;;
39128;SDS011;24864;49.940;19.770;2023-01-01T02:12:43;2.80;;;2.33;;
39128;SDS011;24864;49.940;19.770;2023-01-01T02:15:13;2.45;;;2.00;;
39128;SDS011;24864;49.940;19.770;2023-01-01T02:17:43;2.90;;;2.25;;
39128;SDS011;24864;49.940;19.770;2023-01-01T02:20:24;4.13;;;1.75;;
39128;SDS011;24864;49.940;19.770;2023-01-01T02:23:12;2.65;;;1.98;;
39128;SDS011;24864;49.940;19.770;2023-01-01T02:25:54;2.55;;;2.10;;
39128;SDS011;24864;49.940;19.770;2023-01-01T02:28:41;2.70;;;1.83;;
39128;SDS011;24864;49.940;19.770;2023-01-01T02:31:18;3.75;;;2.10;;
39128;SDS011;24864;49.940;19.770;2023-01-01T02:33:51;2.28;;;1.52;;
39128;SDS011;24864;49.940;19.770;2023-01-01T02:38:52;2.00;;;1.52;;
39128;SDS011;24864;49.940;19.770;2023-01-01T02:41:24;2.83;;;1.50;;
39128;SDS011;24864;49.940;19.770;2023-01-01T02:43:56;3.73;;;1.40;;
39128;SDS011;24864;49.940;19.770;2023-01-01T02:46:22;2.22;;;1.58;;
39128;SDS011;24864;49.940;19.770;2023-01-01T02:48:58;3.13;;;1.80;;
39128;SDS011;24864;49.940;19.770;2023-01-01T02:51:37;2.45;;;1.83;;
39128;SDS011;24864;49.940;19.770;2023-01-01T02:54:15;1.60;;;1.23;;
39128;SDS011;24864;49.940;19.770;2023-01-01T02:56:56;1.58;;;1.20;;
39128;SDS011;24864;49.940;19.770;2023-01-01T02:59:35;2.40;;;1.40;;
39128;SDS011;24864;49.940;19.770;2023-01-01T03:02:34;3.80;;;1.30;;
39128;SDS011;24864;49.940;19.770;2023-01-01T03:05:18;1.70;;;1.40;;
39128;SDS011;24864;49.940;19.770;2023-01-01T03:07:58;1.73;;;1.20;;
39128;SDS011;24864;49.940;19.770;2023-01-01T03:10:34;1.40;;;1.05;;
39128;SDS011;24864;49.940;19.770;2023-01-01T03:13:10;1.75;;;1.40;;
39128;SDS011;24864;49.940;19.770;2023-01-01T03:15:49;1.80;;;1.17;;
39128;SDS011;24864;49.940;19.770;2023-01-01T03:18:25;1.83;;;0.90;;
39128;SDS011;24864;49.940;19.770;2023-01-01T03:21:00;1.08;;;0.98;;
39128;SDS011;24864;49.940;19.770;2023-01-01T03:23:32;1.85;;;1.20;;
39128;SDS011;24864;49.940;19.770;2023-01-01T03:26:05;1.80;;;1.10;;
39128;SDS011;24864;49.940;19.770;2023-01-01T03:28:37;2.40;;;1.27;;
39128;SDS011;24864;49.940;19.770;2023-01-01T03:31:16;2.33;;;1.55;;
39128;SDS011;24864;49.940;19.770;2023-01-01T03:33:48;2.25;;;1.33;;
39128;SDS011;24864;49.940;19.770;2023-01-01T03:36:21;2.25;;;1.10;;
39128;SDS011;24864;49.940;19.770;2023-01-01T03:38:54;1.45;;;1.00;;
39128;SDS011;24864;49.940;19.770;2023-01-01T03:41:28;1.55;;;1.13;;
39128;SDS011;24864;49.940;19.770;2023-01-01T03:44:02;1.85;;;1.20;;
39128;SDS011;24864;49.940;19.770;2023-01-01T03:46:35;1.73;;;1.30;;
39128;SDS011;24864;49.940;19.770;2023-01-01T03:49:04;1.30;;;1.00;;
39128;SDS011;24864;49.940;19.770;2023-01-01T03:54:32;1.77;;;1.20;;
39128;SDS011;24864;49.940;19.770;2023-01-01T03:57:08;1.42;;;1.10;;
39128;SDS011;24864;49.940;19.770;2023-01-01T03:59:40;5.90;;;1.02;;
39128;SDS011;24864;49.940;19.770;2023-01-01T04:02:16;1.90;;;1.30;;
39128;SDS011;24864;49.940;19.770;2023-01-01T04:04:47;1.08;;;0.80;;
39128;SDS011;24864;49.940;19.770;2023-01-01T04:07:16;2.08;;;1.38;;
39128;SDS011;24864;49.940;19.770;2023-01-01T04:09:46;1.98;;;1.20;;
39128;SDS011;24864;49.940;19.770;2023-01-01T04:12:18;6.18;;;1.30;;
39128;SDS011;24864;49.940;19.770;2023-01-01T04:14:47;1.85;;;1.20;;
39128;SDS011;24864;49.940;19.770;2023-01-01T04:17:16;3.70;;;1.42;;
39128;SDS011;24864;49.940;19.770;2023-01-01T04:19:44;2.40;;;1.63;;
39128;SDS011;24864;49.940;19.770;2023-01-01T04:22:20;2.53;;;1.60;;
39128;SDS011;24864;49.940;19.770;2023-01-01T04:24:49;2.53;;;1.50;;
39128;SDS011;24864;49.940;19.770;2023-01-01T04:27:17;5.90;;;1.50;;
39128;SDS011;24864;49.940;19.770;2023-01-01T04:29:45;2.83;;;1.50;;
39128;SDS011;24864;49.940;19.770;2023-01-01T04:32:13;2.58;;;1.58;;
39128;SDS011;24864;49.940;19.770;2023-01-01T04:34:42;2.72;;;1.63;;
39128;SDS011;24864;49.940;19.770;2023-01-01T04:37:10;3.42;;;1.70;;
39128;SDS011;24864;49.940;19.770;2023-01-01T04:39:39;2.20;;;1.58;;
39128;SDS011;24864;49.940;19.770;2023-01-01T04:42:07;4.55;;;2.13;;
39128;SDS011;24864;49.940;19.770;2023-01-01T04:44:36;4.32;;;2.38;;
39128;SDS011;24864;49.940;19.770;2023-01-01T04:47:04;4.40;;;3.13;;
39128;SDS011;24864;49.940;19.770;2023-01-01T04:49:32;5.82;;;4.00;;
39128;SDS011;24864;49.940;19.770;2023-01-01T04:52:01;6.47;;;4.65;;
39128;SDS011;24864;49.940;19.770;2023-01-01T04:54:30;5.43;;;4.05;;
39128;SDS011;24864;49.940;19.770;2023-01-01T04:56:58;9.02;;;4.97;;
39128;SDS011;24864;49.940;19.770;2023-01-01T04:59:27;6.18;;;4.30;;
39128;SDS011;24864;49.940;19.770;2023-01-01T05:01:56;5.65;;;4.65;;
39128;SDS011;24864;49.940;19.770;2023-01-01T05:04:24;7.88;;;4.97;;
39128;SDS011;24864;49.940;19.770;2023-01-01T05:06:52;6.72;;;4.82;;
39128;SDS011;24864;49.940;19.770;2023-01-01T05:09:21;7.53;;;5.30;;
39128;SDS011;24864;49.940;19.770;2023-01-01T05:11:49;8.77;;;5.03;;
39128;SDS011;24864;49.940;19.770;2023-01-01T05:14:17;8.50;;;5.03;;
39128;SDS011;24864;49.940;19.770;2023-01-01T05:16:45;8.18;;;5.25;;
39128;SDS011;24864;49.940;19.770;2023-01-01T05:19:13;7.05;;;5.55;;
39128;SDS011;24864;49.940;19.770;2023-01-01T05:21:41;6.90;;;4.35;;
39128;SDS011;24864;49.940;19.770;2023-01-01T05:24:11;9.68;;;5.53;;
39128;SDS011;24864;49.940;19.770;2023-01-01T05:26:41;8.05;;;5.32;;
39128;SDS011;24864;49.940;19.770;2023-01-01T05:29:11;8.27;;;6.03;;
39128;SDS011;24864;49.940;19.770;2023-01-01T05:31:43;15.23;;;11.95;;
39128;SDS011;24864;49.940;19.770;2023-01-01T05:34:12;9.13;;;6.88;;
39128;SDS011;24864;49.940;19.770;2023-01-01T05:36:40;10.00;;;6.70;;
39128;SDS011;24864;49.940;19.770;2023-01-01T05:39:08;9.85;;;6.82;;
39128;SDS011;24864;49.940;19.770;2023-01-01T05:41:38;11.10;;;6.72;;
39128;SDS011;24864;49.940;19.770;2023-01-01T05:44:08;7.68;;;6.28;;
39128;SDS011;24864;49.940;19.770;2023-01-01T05:46:37;7.63;;;6.15;;
39128;SDS011;24864;49.940;19.770;2023-01-01T05:49:05;9.65;;;6.80;;
39128;SDS011;24864;49.940;19.770;2023-01-01T05:51:36;10.15;;;6.82;;
39128;SDS011;24864;49.940;19.770;2023-01-01T05:54:03;10.52;;;7.05;;
39128;SDS011;24864;49.940;19.770;2023-01-01T05:56:32;10.82;;;7.10;;
39128;SDS011;24864;49.940;19.770;2023-01-01T05:59:00;10.35;;;6.80;;
39128;SDS011;24864;49.940;19.770;2023-01-01T06:01:30;11.18;;;6.65;;
39128;SDS011;24864;49.940;19.770;2023-01-01T06:03:58;10.90;;;7.97;;
39128;SDS011;24864;49.940;19.770;2023-01-01T06:06:27;18.75;;;8.50;;
39128;SDS011;24864;49.940;19.770;2023-01-01T06:08:56;17.60;;;8.40;;
39128;SDS011;24864;49.940;19.770;2023-01-01T06:11:26;13.73;;;8.75;;
39128;SDS011;24864;49.940;19.770;2023-01-01T06:13:56;12.23;;;8.50;;
39128;SDS011;24864;49.940;19.770;2023-01-01T06:16:25;15.50;;;9.88;;
39128;SDS011;24864;49.940;19.770;2023-01-01T06:18:55;15.98;;;10.10;;
39128;SDS011;24864;49.940;19.770;2023-01-01T06:21:25;17.00;;;11.30;;
39128;SDS011;24864;49.940;19.770;2023-01-01T06:23:54;13.52;;;10.40;;
39128;SDS011;24864;49.940;19.770;2023-01-01T06:26:25;15.85;;;11.50;;
39128;SDS011;24864;49.940;19.770;2023-01-01T06:28:54;16.92;;;12.20;;
39128;SDS011;24864;49.940;19.770;2023-01-01T06:31:23;18.80;;;11.90;;
39128;SDS011;24864;49.940;19.770;2023-01-01T06:33:51;18.90;;;11.77;;
39128;SDS011;24864;49.940;19.770;2023-01-01T06:36:21;18.70;;;12.63;;
39128;SDS011;24864;49.940;19.770;2023-01-01T06:38:51;23.05;;;13.23;;
39128;SDS011;24864;49.940;19.770;2023-01-01T06:41:21;22.98;;;13.82;;
39128;SDS011;24864;49.940;19.770;2023-01-01T06:43:50;26.25;;;13.63;;
39128;SDS011;24864;49.940;19.770;2023-01-01T06:46:20;23.10;;;13.52;;
39128;SDS011;24864;49.940;19.770;2023-01-01T06:48:51;21.83;;;14.30;;
39128;SDS011;24864;49.940;19.770;2023-01-01T06:51:22;23.42;;;13.68;;
39128;SDS011;24864;49.940;19.770;2023-01-01T06:53:51;21.17;;;13.55;;
39128;SDS011;24864;49.940;19.770;2023-01-01T06:56:20;25.02;;;14.93;;
39128;SDS011;24864;49.940;19.770;2023-01-01T06:58:48;23.27;;;13.82;;
39128;SDS011;24864;49.940;19.770;2023-01-01T07:01:17;21.15;;;14.65;;
39128;SDS011;24864;49.940;19.770;2023-01-01T07:03:49;25.98;;;15.65;;
39128;SDS011;24864;49.940;19.770;2023-01-01T07:06:18;23.98;;;15.63;;
39128;SDS011;24864;49.940;19.770;2023-01-01T07:08:47;29.60;;;17.45;;
39128;SDS011;24864;49.940;19.770;2023-01-01T07:11:15;31.90;;;18.75;;
39128;SDS011;24864;49.940;19.770;2023-01-01T07:13:44;26.23;;;18.48;;
39128;SDS011;24864;49.940;19.770;2023-01-01T07:16:12;26.48;;;16.77;;
39128;SDS011;24864;49.940;19.770;2023-01-01T07:18:40;20.05;;;14.73;;
39128;SDS011;24864;49.940;19.770;2023-01-01T07:21:20;22.98;;;15.52;;
39128;SDS011;24864;49.940;19.770;2023-01-01T07:23:56;34.40;;;20.08;;
39128;SDS011;24864;49.940;19.770;2023-01-01T07:26:26;32.50;;;18.40;;
39128;SDS011;24864;49.940;19.770;2023-01-01T07:28:55;27.85;;;18.40;;
39128;SDS011;24864;49.940;19.770;2023-01-01T07:31:32;27.48;;;19.33;;
39128;SDS011;24864;49.940;19.770;2023-01-01T07:34:01;27.30;;;17.40;;
39128;SDS011;24864;49.940;19.770;2023-01-01T07:36:29;32.05;;;18.02;;
39128;SDS011;24864;49.940;19.770;2023-01-01T07:38:58;29.88;;;18.30;;
39128;SDS011;24864;49.940;19.770;2023-01-01T07:41:27;34.13;;;17.85;;
39128;SDS011;24864;49.940;19.770;2023-01-01T07:43:54;26.98;;;17.70;;
39128;SDS011;24864;49.940;19.770;2023-01-01T07:46:23;30.77;;;18.20;;
39128;SDS011;24864;49.940;19.770;2023-01-01T07:48:51;29.88;;;18.90;;
39128;SDS011;24864;49.940;19.770;2023-01-01T07:51:19;34.95;;;20.42;;
39128;SDS011;24864;49.940;19.770;2023-01-01T07:53:47;38.67;;;21.13;;
39128;SDS011;24864;49.940;19.770;2023-01-01T07:56:16;28.58;;;16.95;;
39128;SDS011;24864;49.940;19.770;2023-01-01T07:58:44;22.80;;;14.73;;
39128;SDS011;24864;49.940;19.770;2023-01-01T08:01:12;38.42;;;23.65;;
39128;SDS011;24864;49.940;19.770;2023-01-01T08:03:41;29.10;;;19.30;;
39128;SDS011;24864;49.940;19.770;2023-01-01T08:06:09;37.03;;;22.60;;
39128;SDS011;24864;49.940;19.770;2023-01-01T08:08:39;38.03;;;21.33;;
39128;SDS011;24864;49.940;19.770;2023-01-01T08:11:07;33.63;;;21.10;;
39128;SDS011;24864;49.940;19.770;2023-01-01T08:13:36;33.72;;;20.20;;
39128;SDS011;24864;49.940;19.770;2023-01-01T08:16:04;30.83;;;17.88;;
39128;SDS011;24864;49.940;19.770;2023-01-01T08:18:33;29.17;;;18.65;;
39128;SDS011;24864;49.940;19.770;2023-01-01T08:21:01;38.13;;;20.77;;
39128;SDS011;24864;49.940;19.770;2023-01-01T08:23:29;38.58;;;21.83;;
39128;SDS011;24864;49.940;19.770;2023-01-01T08:25:57;34.13;;;21.00;;
39128;SDS011;24864;49.940;19.770;2023-01-01T08:28:26;34.00;;;19.60;;
39128;SDS011;24864;49.940;19.770;2023-01-01T08:30:57;30.83;;;19.42;;
39128;SDS011;24864;49.940;19.770;2023-01-01T08:33:25;29.83;;;17.33;;
39128;SDS011;24864;49.940;19.770;2023-01-01T08:35:53;30.77;;;18.42;;
39128;SDS011;24864;49.940;19.770;2023-01-01T08:38:21;35.45;;;19.90;;
39128;SDS011;24864;49.940;19.770;2023-01-01T08:40:50;31.63;;;18.40;;
39128;SDS011;24864;49.940;19.770;2023-01-01T08:43:18;30.65;;;17.70;;
39128;SDS011;24864;49.940;19.770;2023-01-01T08:45:46;32.05;;;18.15;;
39128;SDS011;24864;49.940;19.770;2023-01-01T08:48:16;31.63;;;17.17;;
39128;SDS011;24864;49.940;19.770;2023-01-01T08:50:44;27.45;;;17.42;;
39128;SDS011;24864;49.940;19.770;2023-01-01T08:53:19;29.33;;;17.05;;
39128;SDS011;24864;49.940;19.770;2023-01-01T08:55:54;31.08;;;17.75;;
39128;SDS011;24864;49.940;19.770;2023-01-01T08:58:22;34.35;;;19.40;;
39128;SDS011;24864;49.940;19.770;2023-01-01T09:00:50;31.40;;;18.88;;
39128;SDS011;24864;49.940;19.770;2023-01-01T09:03:20;28.02;;;17.60;;
39128;SDS011;24864;49.940;19.770;2023-01-01T09:05:49;24.45;;;16.65;;
39128;SDS011;24864;49.940;19.770;2023-01-01T09:08:17;28.27;;;17.85;;
39128;SDS011;24864;49.940;19.770;2023-01-01T09:10:45;26.80;;;17.25;;
39128;SDS011;24864;49.940;19.770;2023-01-01T09:13:14;31.73;;;18.88;;
39128;SDS011;24864;49.940;19.770;2023-01-01T09:15:44;27.92;;;18.75;;
39128;SDS011;24864;49.940;19.770;2023-01-01T09:18:12;31.50;;;16.95;;
39128;SDS011;24864;49.940;19.770;2023-01-01T09:20:41;28.45;;;18.30;;
39128;SDS011;24864;49.940;19.770;2023-01-01T09:23:09;30.00;;;16.63;;
39128;SDS011;24864;49.940;19.770;2023-01-01T09:25:38;31.02;;;16.90;;
39128;SDS011;24864;49.940;19.770;2023-01-01T09:28:07;28.63;;;16.92;;
39128;SDS011;24864;49.940;19.770;2023-01-01T09:30:37;29.73;;;16.98;;
39128;SDS011;24864;49.940;19.770;2023-01-01T09:33:05;29.45;;;16.60;;
39128;SDS011;24864;49.940;19.770;2023-01-01T09:35:33;29.48;;;17.58;;
39128;SDS011;24864;49.940;19.770;2023-01-01T09:38:05;25.70;;;17.15;;
39128;SDS011;24864;49.940;19.770;2023-01-01T09:40:35;29.67;;;17.85;;
39128;SDS011;24864;49.940;19.770;2023-01-01T09:43:19;30.00;;;17.38;;
39128;SDS011;24864;49.940;19.770;2023-01-01T09:45:55;28.55;;;17.05;;
39128;SDS011;24864;49.940;19.770;2023-01-01T09:48:26;26.48;;;17.27;;
39128;SDS011;24864;49.940;19.770;2023-01-01T09:50:57;31.52;;;17.52;;
39128;SDS011;24864;49.940;19.770;2023-01-01T09:53:29;26.75;;;16.70;;
39128;SDS011;24864;49.940;19.770;2023-01-01T09:56:01;31.42;;;17.83;;
39128;SDS011;24864;49.940;19.770;2023-01-01T09:58:31;27.48;;;16.85;;
39128;SDS011;24864;49.940;19.770;2023-01-01T10:01:02;26.83;;;16.17;;
39128;SDS011;24864;49.940;19.770;2023-01-01T10:03:38;28.67;;;16.00;;
39128;SDS011;24864;49.940;19.770;2023-01-01T10:06:14;29.80;;;17.00;;
39128;SDS011;24864;49.940;19.770;2023-01-01T10:08:55;27.92;;;15.43;;
39128;SDS011;24864;49.940;19.770;2023-01-01T10:11:30;28.17;;;15.17;;
39128;SDS011;24864;49.940;19.770;2023-01-01T10:14:09;22.58;;;15.07;;
39128;SDS011;24864;49.940;19.770;2023-01-01T10:16:44;31.55;;;16.55;;
39128;SDS011;24864;49.940;19.770;2023-01-01T10:19:19;26.73;;;14.77;;
39128;SDS011;24864;49.940;19.770;2023-01-01T10:21:53;26.25;;;15.30;;
39128;SDS011;24864;49.940;19.770;2023-01-01T10:24:32;25.65;;;15.55;;
39128;SDS011;24864;49.940;19.770;2023-01-01T10:27:05;21.90;;;14.48;;
39128;SDS011;24864;49.940;19.770;2023-01-01T10:29:35;28.95;;;14.73;;
39128;SDS011;24864;49.940;19.770;2023-01-01T10:32:14;22.42;;;14.65;;
39128;SDS011;24864;49.940;19.770;2023-01-01T10:34:45;27.05;;;14.70;;
39128;SDS011;24864;49.940;19.770;2023-01-01T10:37:15;26.58;;;16.83;;
39128;SDS011;24864;49.940;19.770;2023-01-01T10:39:44;27.60;;;16.73;;
39128;SDS011;24864;49.940;19.770;2023-01-01T10:42:14;28.63;;;15.30;;
39128;SDS011;24864;49.940;19.770;2023-01-01T10:44:42;19.30;;;13.95;;
39128;SDS011;24864;49.940;19.770;2023-01-01T10:50:00;18.48;;;12.68;;
39128;SDS011;24864;49.940;19.770;2023-01-01T10:52:34;21.85;;;12.43;;
39128;SDS011;24864;49.940;19.770;2023-01-01T10:55:05;16.58;;;12.25;;
39128;SDS011;24864;49.940;19.770;2023-01-01T10:57:45;18.88;;;12.52;;
39128;SDS011;24864;49.940;19.770;2023-01-01T11:00:21;19.33;;;12.48;;
39128;SDS011;24864;49.940;19.770;2023-01-01T11:03:04;18.30;;;13.05;;
39128;SDS011;24864;49.940;19.770;2023-01-01T11:05:44;18.77;;;12.73;;
39128;SDS011;24864;49.940;19.770;2023-01-01T11:08:27;19.67;;;12.68;;
39128;SDS011;24864;49.940;19.770;2023-01-01T11:10:58;25.42;;;14.90;;
39128;SDS011;24864;49.940;19.770;2023-01-01T11:13:28;23.55;;;15.38;;
39128;SDS011;24864;49.940;19.770;2023-01-01T11:15:57;24.55;;;14.30;;
39128;SDS011;24864;49.940;19.770;2023-01-01T11:18:27;23.70;;;13.43;;
39128;SDS011;24864;49.940;19.770;2023-01-01T11:21:02;23.65;;;13.38;;
39128;SDS011;24864;49.940;19.770;2023-01-01T11:23:32;23.35;;;12.90;;
39128;SDS011;24864;49.940;19.770;2023-01-01T11:26:04;22.35;;;14.18;;
39128;SDS011;24864;49.940;19.770;2023-01-01T11:28:57;23.15;;;15.20;;
39128;SDS011;24864;49.940;19.770;2023-01-01T11:31:27;20.05;;;14.40;;
39128;SDS011;24864;49.940;19.770;2023-01-01T11:34:01;20.42;;;14.63;;
39128;SDS011;24864;49.940;19.770;2023-01-01T11:36:31;18.67;;;13.75;;
39128;SDS011;24864;49.940;19.770;2023-01-01T11:39:13;24.10;;;15.10;;
39128;SDS011;24864;49.940;19.770;2023-01-01T11:41:49;25.73;;;15.65;;
39128;SDS011;24864;49.940;19.770;2023-01-01T11:44:24;27.38;;;15.98;;
39128;SDS011;24864;49.940;19.770;2023-01-01T11:46:57;23.13;;;15.55;;
39128;SDS011;24864;49.940;19.770;2023-01-01T11:49:26;28.70;;;16.27;;
39128;SDS011;24864;49.940;19.770;2023-01-01T11:51:56;23.83;;;15.77;;
39128;SDS011;24864;49.940;19.770;2023-01-01T11:54:28;26.45;;;16.58;;
39128;SDS011;24864;49.940;19.770;2023-01-01T11:57:01;26.20;;;15.20;;
39128;SDS011;24864;49.940;19.770;2023-01-01T11:59:38;21.42;;;14.38;;
39128;SDS011;24864;49.940;19.770;2023-01-01T12:02:13;20.33;;;14.20;;
39128;SDS011;24864;49.940;19.770;2023-01-01T12:04:46;24.88;;;15.32;;
39128;SDS011;24864;49.940;19.770;2023-01-01T12:07:20;26.40;;;16.30;;
39128;SDS011;24864;49.940;19.770;2023-01-01T12:09:56;21.63;;;15.18;;
39128;SDS011;24864;49.940;19.770;2023-01-01T12:12:29;23.23;;;14.82;;
39128;SDS011;24864;49.940;19.770;2023-01-01T12:15:03;25.95;;;15.40;;
39128;SDS011;24864;49.940;19.770;2023-01-01T12:17:38;25.23;;;15.98;;
39128;SDS011;24864;49.940;19.770;2023-01-01T12:20:10;21.92;;;15.35;;
39128;SDS011;24864;49.940;19.770;2023-01-01T12:22:41;24.17;;;14.45;;
39128;SDS011;24864;49.940;19.770;2023-01-01T12:25:10;19.27;;;15.10;;
39128;SDS011;24864;49.940;19.770;2023-01-01T12:27:46;26.83;;;16.80;;
39128;SDS011;24864;49.940;19.770;2023-01-01T12:30:27;24.02;;;16.27;;
39128;SDS011;24864;49.940;19.770;2023-01-01T12:33:06;26.73;;;16.10;;
39128;SDS011;24864;49.940;19.770;2023-01-01T12:35:45;21.65;;;15.52;;
39128;SDS011;24864;49.940;19.770;2023-01-01T12:38:24;25.45;;;16.58;;
39128;SDS011;24864;49.940;19.770;2023-01-01T12:41:05;28.85;;;17.52;;
39128;SDS011;24864;49.940;19.770;2023-01-01T12:43:41;30.35;;;19.38;;
39128;SDS011;24864;49.940;19.770;2023-01-01T12:46:28;35.35;;;19.13;;
39128;SDS011;24864;49.940;19.770;2023-01-01T12:49:18;31.08;;;18.33;;
39128;SDS011;24864;49.940;19.770;2023-01-01T12:52:03;30.10;;;19.73;;
39128;SDS011;24864;49.940;19.770;2023-01-01T12:57:47;32.22;;;17.30;;
39128;SDS011;24864;49.940;19.770;2023-01-01T13:00:23;27.98;;;17.75;;
39128;SDS011;24864;49.940;19.770;2023-01-01T13:02:53;28.08;;;18.17;;
39128;SDS011;24864;49.940;19.770;2023-01-01T13:05:35;26.58;;;16.80;;
39128;SDS011;24864;49.940;19.770;2023-01-01T13:08:04;25.23;;;16.15;;
39128;SDS011;24864;49.940;19.770;2023-01-01T13:10:33;26.50;;;17.45;;
39128;SDS011;24864;49.940;19.770;2023-01-01T13:13:04;26.70;;;16.53;;
39128;SDS011;24864;49.940;19.770;2023-01-01T13:15:44;33.45;;;18.88;;
39128;SDS011;24864;49.940;19.770;2023-01-01T13:18:23;27.75;;;17.17;;
39128;SDS011;24864;49.940;19.770;2023-01-01T13:20:53;32.20;;;17.38;;
39128;SDS011;24864;49.940;19.770;2023-01-01T13:32:01;30.10;;;17.35;;
39128;SDS011;24864;49.940;19.770;2023-01-01T13:37:30;27.05;;;17.63;;
39128;SDS011;24864;49.940;19.770;2023-01-01T13:43:19;31.73;;;18.58;;
39128;SDS011;24864;49.940;19.770;2023-01-01T13:45:54;32.90;;;18.13;;
39128;SDS011;24864;49.940;19.770;2023-01-01T13:48:49;31.50;;;18.08;;
39128;SDS011;24864;49.940;19.770;2023-01-01T13:51:41;29.17;;;18.27;;
39128;SDS011;24864;49.940;19.770;2023-01-01T13:57:58;33.90;;;18.17;;
39128;SDS011;24864;49.940;19.770;2023-01-01T14:00:52;28.63;;;17.92;;
39128;SDS011;24864;49.940;19.770;2023-01-01T14:03:28;28.42;;;18.08;;
39128;SDS011;24864;49.940;19.770;2023-01-01T14:06:07;30.20;;;18.67;;
39128;SDS011;24864;49.940;19.770;2023-01-01T14:08:38;33.10;;;18.80;;
39128;SDS011;24864;49.940;19.770;2023-01-01T14:11:16;30.55;;;17.75;;
39128;SDS011;24864;49.940;19.770;2023-01-01T14:13:46;31.25;;;18.55;;
39128;SDS011;24864;49.940;19.770;2023-01-01T14:16:14;31.80;;;18.58;;
39128;SDS011;24864;49.940;19.770;2023-01-01T14:18:43;34.38;;;18.77;;
39128;SDS011;24864;49.940;19.770;2023-01-01T14:21:16;28.42;;;17.75;;
39128;SDS011;24864;49.940;19.770;2023-01-01T14:23:47;30.25;;;17.60;;
39128;SDS011;24864;49.940;19.770;2023-01-01T14:26:18;31.75;;;18.55;;
39128;SDS011;24864;49.940;19.770;2023-01-01T14:28:51;32.45;;;17.88;;
39128;SDS011;24864;49.940;19.770;2023-01-01T14:31:20;35.45;;;19.38;;
39128;SDS011;24864;49.940;19.770;2023-01-01T14:33:53;31.73;;;18.88;;
39128;SDS011;24864;49.940;19.770;2023-01-01T14:36:23;31.73;;;19.88;;
39128;SDS011;24864;49.940;19.770;2023-01-01T14:38:54;32.03;;;19.83;;
39128;SDS011;24864;49.940;19.770;2023-01-01T14:41:23;29.35;;;19.02;;
39128;SDS011;24864;49.940;19.770;2023-01-01T14:43:55;32.35;;;20.13;;
39128;SDS011;24864;49.940;19.770;2023-01-01T14:46:24;40.10;;;22.38;;
39128;SDS011;24864;49.940;19.770;2023-01-01T14:48:54;73.10;;;37.95;;
39128;SDS011;24864;49.940;19.770;2023-01-01T14:51:26;131.45;;;69.35;;
39128;SDS011;24864;49.940;19.770;2023-01-01T14:53:56;116.18;;;62.33;;
39128;SDS011;24864;49.940;19.770;2023-01-01T14:56:26;75.72;;;45.70;;
39128;SDS011;24864;49.940;19.770;2023-01-01T14:58:57;68.85;;;37.35;;
39128;SDS011;24864;49.940;19.770;2023-01-01T15:01:31;68.07;;;38.70;;
39128;SDS011;24864;49.940;19.770;2023-01-01T15:04:00;74.50;;;41.50;;
39128;SDS011;24864;49.940;19.770;2023-01-01T15:06:31;111.60;;;62.20;;
39128;SDS011;24864;49.940;19.770;2023-01-01T15:08:59;70.30;;;40.72;;
39128;SDS011;24864;49.940;19.770;2023-01-01T15:11:27;87.22;;;46.25;;
39128;SDS011;24864;49.940;19.770;2023-01-01T15:13:56;80.25;;;45.72;;
39128;SDS011;24864;49.940;19.770;2023-01-01T15:16:27;102.90;;;52.45;;
39128;SDS011;24864;49.940;19.770;2023-01-01T15:19:15;97.10;;;49.15;;
39128;SDS011;24864;49.940;19.770;2023-01-01T15:21:47;82.43;;;43.50;;